Time;durP1;ratioP1;P1;durP2;ratioP2;P2;SDS_P1;SDS_P2;PMS_P1;PMS_P2;Temp;Humidity;BMP_temperature;BMP_pressure;BME280_temperature;BME280_humidity;BME280_pressure;Samples;Min_cycle;Max_cycle;Signal;HPM_P1;HPM_P2
2022/06/18 00:01:48;;;;;;;;;18.25;18.00;;;;;28.24;40.20;101508.41;5100241;27;46641;-75
2022/06/18 00:04:17;;;;;;;;;18.50;18.00;;;;;28.22;40.62;101510.44;5100572;27;45350;-75
2022/06/18 00:06:52;;;;;;;;;17.75;17.75;;;;;28.18;40.11;101498.00;5098264;27;45400;-75
2022/06/18 00:09:21;;;;;;;;;22.00;19.00;;;;;28.16;40.72;101500.88;5101002;27;45306;-75
2022/06/18 00:14:37;;;;;;;;;18.00;18.00;;;;;28.09;41.49;101492.38;5100577;27;45638;-75
2022/06/18 00:17:14;;;;;;;;;18.75;18.25;;;;;28.06;41.56;101489.06;5099631;27;45760;-75
2022/06/18 00:19:40;;;;;;;;;18.75;18.75;;;;;28.06;41.16;101497.28;5099270;27;46096;-75
2022/06/18 00:22:05;;;;;;;;;19.75;18.75;;;;;28.02;40.96;101488.50;5100251;27;46133;-75
2022/06/18 00:24:31;;;;;;;;;18.50;17.75;;;;;28.01;41.01;101489.50;5100540;27;45166;-75
2022/06/18 00:26:56;;;;;;;;;18.75;18.75;;;;;27.98;41.48;101480.69;5099472;27;45214;-75
2022/06/18 00:29:22;;;;;;;;;20.50;17.25;;;;;27.99;40.99;101486.03;5100436;27;45225;-75
2022/06/18 00:31:47;;;;;;;;;20.25;20.25;;;;;27.98;40.95;101495.28;5091742;27;45510;-75
2022/06/18 00:34:14;;;;;;;;;19.25;19.25;;;;;27.98;41.12;101489.78;5095376;27;45424;-75
2022/06/18 00:36:42;;;;;;;;;19.25;17.75;;;;;27.95;41.38;101480.97;5100354;27;45356;-75
2022/06/18 00:39:16;;;;;;;;;21.00;19.50;;;;;27.93;41.14;101489.34;5091799;27;45475;-75
2022/06/18 00:41:45;;;;;;;;;23.25;20.00;;;;;27.87;41.37;101485.28;5100267;27;45488;-75
2022/06/18 00:44:27;;;;;;;;;18.25;18.00;;;;;27.86;41.44;101480.81;5098973;27;45394;-75
2022/06/18 00:47:06;;;;;;;;;17.00;16.50;;;;;27.88;41.58;101488.88;5099400;27;45887;-75
2022/06/18 00:49:51;;;;;;;;;16.25;16.00;;;;;27.82;41.51;101487.59;5087555;27;45548;-75
2022/06/18 00:52:22;;;;;;;;;16.25;15.75;;;;;27.84;41.73;101491.06;5099740;27;45324;-75
2022/06/18 00:55:06;;;;;;;;;16.00;16.00;;;;;27.83;41.75;101502.19;5098894;27;45626;-75
2022/06/18 00:57:37;;;;;;;;;20.75;17.00;;;;;27.79;41.96;101498.00;5085538;27;45251;-75
2022/06/18 01:00:09;;;;;;;;;18.50;16.75;;;;;27.73;41.40;101493.94;5099446;27;45375;-75
2022/06/18 01:02:39;;;;;;;;;16.50;16.50;;;;;27.71;41.87;101496.81;5100247;27;46134;-75
2022/06/18 01:05:35;;;;;;;;;16.25;16.00;;;;;27.67;41.79;101491.78;5098561;27;45450;-75
2022/06/18 01:08:10;;;;;;;;;17.75;16.75;;;;;27.63;41.98;101479.34;5097825;27;45407;-75
2022/06/18 01:10:41;;;;;;;;;21.75;18.25;;;;;27.67;42.01;101494.53;5099973;27;45303;-75
2022/06/18 01:13:10;;;;;;;;;15.75;15.75;;;;;27.61;41.95;101493.22;5099877;27;46060;-75
2022/06/18 01:15:37;;;;;;;;;14.75;12.50;;;;;27.56;42.27;101486.44;5099867;27;45455;-75
2022/06/18 01:18:04;;;;;;;;;20.25;17.00;;;;;27.50;41.92;101485.16;5102631;27;45368;-75
2022/06/18 01:20:37;;;;;;;;;14.75;14.25;;;;;27.52;42.56;101492.19;5101835;27;45521;-75
2022/06/18 01:23:20;;;;;;;;;19.50;17.50;;;;;27.49;42.20;101491.63;5103222;27;47009;-75
2022/06/18 01:25:47;;;;;;;;;17.00;16.75;;;;;27.43;42.35;101483.97;5103173;27;45318;-75
2022/06/18 01:28:16;;;;;;;;;14.75;14.50;;;;;27.44;42.55;101491.19;5102552;27;45232;-75
2022/06/18 01:30:43;;;;;;;;;15.75;14.50;;;;;27.42;42.79;101484.97;5102441;27;45616;-75
2022/06/18 01:33:10;;;;;;;;;18.00;18.00;;;;;27.40;43.12;101473.28;5089350;27;46191;-75
2022/06/18 01:35:37;;;;;;;;;17.75;16.75;;;;;27.37;42.94;101476.31;5102988;27;45415;-75
2022/06/18 01:38:04;;;;;;;;;16.75;14.75;;;;;27.36;43.06;101475.44;5101658;27;45215;-75
2022/06/18 01:40:37;;;;;;;;;14.75;14.50;;;;;27.30;42.98;101467.78;5095445;27;45441;-75
2022/06/18 01:43:05;;;;;;;;;14.25;13.50;;;;;27.28;42.93;101475.25;5103259;27;45353;-75
2022/06/18 01:45:35;;;;;;;;;16.00;14.25;;;;;27.26;42.98;101469.91;5102448;27;45412;-75
2022/06/18 01:48:14;;;;;;;;;13.50;13.50;;;;;27.26;43.22;101475.38;5101902;27;45309;-75
2022/06/18 01:50:50;;;;;;;;;13.50;12.75;;;;;27.17;42.82;101455.16;5102612;27;45266;-75
2022/06/18 01:53:22;;;;;;;;;11.00;11.00;;;;;27.23;41.92;101463.84;5102903;27;45361;-75
2022/06/18 01:55:58;;;;;;;;;12.25;12.25;;;;;27.24;41.91;101469.19;5102530;27;45344;-75
2022/06/18 01:58:36;;;;;;;;;10.25;10.25;;;;;27.22;41.85;101462.13;5102126;27;45227;-75
2022/06/18 02:01:06;;;;;;;;;12.00;11.50;;;;;27.20;41.79;101464.09;5102468;27;45259;-75
2022/06/18 02:03:32;;;;;;;;;13.50;12.25;;;;;27.19;41.59;101455.03;5102458;27;45276;-75
2022/06/18 02:05:57;;;;;;;;;12.50;12.50;;;;;27.22;41.51;101459.38;5101384;27;45198;-75
2022/06/18 02:08:23;;;;;;;;;12.00;12.00;;;;;27.19;41.54;101452.28;5099967;27;45330;-75
2022/06/18 02:10:59;;;;;;;;;12.25;12.25;;;;;27.20;41.46;101455.88;5102568;27;45483;-75
2022/06/18 02:13:29;;;;;;;;;12.50;12.50;;;;;27.18;41.57;101451.44;5100965;27;47162;-75
2022/06/18 02:15:58;;;;;;;;;11.00;11.00;;;;;27.17;41.22;101448.84;5102084;27;45291;-75
2022/06/18 02:18:24;;;;;;;;;11.50;11.50;;;;;27.17;41.17;101448.84;5096808;27;45552;-75
2022/06/18 02:20:55;;;;;;;;;11.50;11.50;;;;;27.16;41.48;101447.97;5100985;27;45398;-75
2022/06/18 02:23:22;;;;;;;;;11.25;11.25;;;;;27.18;41.61;101439.59;5102590;27;46296;-75
2022/06/18 02:25:48;;;;;;;;;12.75;12.00;;;;;27.15;41.44;101443.50;5102264;27;46847;-75
2022/06/18 02:28:39;;;;;;;;;12.75;11.25;;;;;27.15;41.37;101438.00;5101650;27;45831;-75
2022/06/18 02:31:05;;;;;;;;;12.25;10.25;;;;;27.13;41.58;101433.66;5097986;27;45413;-75
2022/06/18 02:33:49;;;;;;;;;11.25;11.25;;;;;27.13;41.78;101434.56;5091487;27;45290;-75
2022/06/18 02:36:16;;;;;;;;;11.25;11.25;;;;;27.16;41.56;101436.13;5101461;27;45447;-75
2022/06/18 02:38:42;;;;;;;;;10.25;10.25;;;;;27.15;41.69;101426.19;5094723;27;45454;-75
2022/06/18 02:41:10;;;;;;;;;9.50;9.50;;;;;27.12;41.58;101423.72;5100864;27;45345;-75
2022/06/18 02:43:35;;;;;;;;;11.50;11.50;;;;;27.13;41.63;101428.19;5102172;27;45335;-75
2022/06/18 02:46:02;;;;;;;;;13.00;13.00;;;;;27.11;42.02;101414.63;5101240;27;45360;-75
2022/06/18 02:48:30;;;;;;;;;12.50;12.25;;;;;27.11;42.11;101416.50;5099703;27;45459;-75
2022/06/18 02:50:58;;;;;;;;;11.00;11.00;;;;;27.08;42.40;101408.56;5101880;27;45556;-75
2022/06/18 02:53:25;;;;;;;;;12.25;12.00;;;;;26.98;42.18;101395.72;5101584;27;45489;-75
2022/06/18 02:55:54;;;;;;;;;12.00;12.00;;;;;27.07;42.28;101404.97;5101794;27;45370;-75
2022/06/18 02:58:26;;;;;;;;;14.00;14.00;;;;;27.03;42.35;101402.66;5100845;27;45427;-75
2022/06/18 03:01:02;;;;;;;;;14.25;12.75;;;;;27.04;42.89;101408.00;5100386;27;45463;-75
2022/06/18 03:03:31;;;;;;;;;10.00;8.75;;;;;27.03;42.51;101406.28;5101619;27;45356;-75
2022/06/18 03:05:56;;;;;;;;;14.75;14.00;;;;;26.96;42.73;101391.38;5092136;27;45525;-75
2022/06/18 03:08:24;;;;;;;;;12.75;12.25;;;;;26.95;42.95;101396.00;5100800;27;45440;-75
2022/06/18 03:13:36;;;;;;;;;12.00;12.00;;;;;26.86;42.94;101374.06;5101269;27;45823;-75
2022/06/18 03:16:03;;;;;;;;;11.25;11.25;;;;;26.93;43.08;101380.69;5101092;27;45262;-75
2022/06/18 03:18:30;;;;;;;;;12.00;12.00;;;;;26.92;43.25;101379.00;5092533;27;45410;-75
2022/06/18 03:21:31;;;;;;;;;15.00;14.00;;;;;26.90;43.27;101372.78;5101511;27;45452;-75
2022/06/18 03:23:56;;;;;;;;;15.50;11.50;;;;;26.84;42.96;101366.00;5099871;27;47223;-75
2022/06/18 03:26:22;;;;;;;;;12.75;12.50;;;;;26.85;43.15;101370.47;5100438;27;45493;-75
2022/06/18 03:28:47;;;;;;;;;15.00;15.00;;;;;26.82;43.22;101368.00;5099451;27;45473;-75
2022/06/18 03:31:13;;;;;;;;;14.25;13.25;;;;;26.79;43.34;101366.41;5097263;27;45383;-75
2022/06/18 03:33:41;;;;;;;;;12.00;11.00;;;;;26.75;43.20;101366.84;5091183;27;45506;-75
2022/06/18 03:36:07;;;;;;;;;16.25;15.00;;;;;26.73;43.16;101361.50;5101014;27;45502;-75
2022/06/18 03:38:33;;;;;;;;;13.75;13.75;;;;;26.72;43.69;101357.03;5094622;27;45374;-75
2022/06/18 03:40:58;;;;;;;;;14.50;13.75;;;;;26.69;43.56;101361.91;5098160;27;45243;-75
2022/06/18 03:43:25;;;;;;;;;12.50;11.75;;;;;26.68;44.10;101357.44;5101279;27;46001;-75
2022/06/18 03:45:54;;;;;;;;;15.25;14.25;;;;;26.67;44.02;101363.94;5100017;27;45362;-75
2022/06/18 03:48:30;;;;;;;;;15.50;14.75;;;;;26.62;44.52;101356.97;5100351;27;45342;-75
2022/06/18 03:50:55;;;;;;;;;15.25;15.25;;;;;26.56;44.47;101351.19;5101016;27;45377;-75
2022/06/18 03:53:21;;;;;;;;;15.50;14.50;;;;;26.53;44.23;101349.59;5100916;27;45443;-75
2022/06/18 03:55:47;;;;;;;;;13.00;13.00;;;;;26.54;44.18;101356.78;5100727;27;45381;-75
2022/06/18 03:58:13;;;;;;;;;14.75;14.25;;;;;26.52;44.03;101353.34;5099457;27;45260;-75
2022/06/18 04:00:39;;;;;;;;;10.50;10.50;;;;;26.52;44.27;101353.34;5100563;27;45342;-75
2022/06/18 04:03:04;;;;;;;;;11.75;11.75;;;;;26.46;44.25;101351.13;5099622;27;46336;-75
2022/06/18 04:05:31;;;;;;;;;16.00;16.00;;;;;26.47;44.46;101352.88;5098835;27;45401;-75
2022/06/18 04:07:57;;;;;;;;;13.75;13.75;;;;;26.43;44.34;101346.81;5088138;27;45613;-75
2022/06/18 04:10:22;;;;;;;;;16.75;14.50;;;;;26.43;44.41;101351.44;5098984;27;45364;-75
2022/06/18 04:12:48;;;;;;;;;14.25;13.75;;;;;26.40;44.37;101347.09;5100488;27;45368;-75
2022/06/18 04:15:15;;;;;;;;;13.75;13.25;;;;;26.42;44.25;101349.69;5098600;27;45269;-75
2022/06/18 04:17:41;;;;;;;;;18.00;15.75;;;;;26.41;44.97;101353.44;5095651;27;45438;-75
2022/06/18 04:20:15;;;;;;;;;14.00;12.00;;;;;26.36;44.92;101342.03;5100731;27;45318;-75
2022/06/18 04:22:40;;;;;;;;;13.50;13.50;;;;;26.35;44.40;101343.91;5098335;27;45537;-75
2022/06/18 04:25:06;;;;;;;;;12.25;12.00;;;;;26.37;44.33;101346.50;5098582;27;49725;-75
2022/06/18 04:27:32;;;;;;;;;14.25;14.00;;;;;26.35;44.52;101349.38;5099311;27;45494;-75
2022/06/18 04:29:57;;;;;;;;;13.50;13.50;;;;;26.36;44.58;101340.19;5098509;27;45499;-75
2022/06/18 04:32:23;;;;;;;;;16.25;14.00;;;;;26.36;44.70;101336.56;5099547;27;47854;-75
2022/06/18 04:34:48;;;;;;;;;13.25;12.75;;;;;26.32;44.40;101330.50;5100161;27;45217;-75
2022/06/18 04:37:13;;;;;;;;;13.25;13.25;;;;;26.35;44.17;101332.97;5099530;27;45201;-75
2022/06/18 04:39:38;;;;;;;;;12.00;10.00;;;;;26.35;44.71;101329.38;5097688;27;45431;-75
2022/06/18 04:42:04;;;;;;;;;12.75;12.75;;;;;26.31;44.60;101325.16;5095621;27;47787;-75
2022/06/18 04:44:29;;;;;;;;;14.00;13.25;;;;;26.33;44.03;101336.81;5098628;27;45234;-75
2022/06/18 04:46:55;;;;;;;;;15.00;12.50;;;;;26.25;43.89;101321.13;5098928;27;45500;-75
2022/06/18 04:49:20;;;;;;;;;13.00;11.50;;;;;26.33;43.87;101339.56;5082671;27;45785;-75
2022/06/18 04:51:47;;;;;;;;;12.00;12.00;;;;;26.28;44.13;101329.06;5100464;27;45289;-75
2022/06/18 04:54:13;;;;;;;;;11.00;10.00;;;;;26.30;44.11;101337.13;5103795;27;45411;-75
2022/06/18 04:56:38;;;;;;;;;13.00;12.00;;;;;26.30;44.42;101339.88;5103011;27;45481;-75
2022/06/18 04:59:03;;;;;;;;;11.00;11.00;;;;;26.33;44.49;101350.50;5103916;27;45455;-75
2022/06/18 05:01:30;;;;;;;;;16.00;13.25;;;;;26.33;44.58;101350.50;5103160;27;45297;-75
2022/06/18 05:03:55;;;;;;;;;11.75;11.75;;;;;26.31;44.24;101349.78;5102777;27;45405;-75
2022/06/18 05:06:21;;;;;;;;;12.00;11.50;;;;;26.29;44.03;101349.06;5102182;27;45440;-75
2022/06/18 05:08:46;;;;;;;;;13.00;12.75;;;;;26.29;44.48;101343.59;5103957;27;45301;-75
2022/06/18 05:11:11;;;;;;;;;15.50;12.75;;;;;26.24;44.08;101336.69;5103221;27;45427;-75
2022/06/18 05:13:37;;;;;;;;;12.50;12.00;;;;;26.28;43.99;101341.84;5102321;27;45550;-75
2022/06/18 05:16:03;;;;;;;;;13.50;13.50;;;;;26.26;44.05;101339.25;5101385;27;49558;-74
2022/06/18 05:18:32;;;;;;;;;10.00;10.00;;;;;26.25;44.23;101337.53;5101596;27;45203;-75
2022/06/18 05:20:57;;;;;;;;;10.00;10.00;;;;;26.25;43.97;101337.53;5101962;27;46584;-75
2022/06/18 05:23:23;;;;;;;;;11.50;10.75;;;;;26.28;44.16;101350.94;5103163;27;45320;-75
2022/06/18 05:26:00;;;;;;;;;12.25;12.00;;;;;26.28;44.24;101340.00;5101695;27;45443;-74
2022/06/18 05:28:26;;;;;;;;;13.00;11.25;;;;;26.25;43.94;101337.53;5102790;27;45372;-75
2022/06/18 05:30:52;;;;;;;;;13.00;13.00;;;;;26.25;44.34;101332.91;5102580;27;45401;-75
2022/06/18 05:33:17;;;;;;;;;9.75;9.50;;;;;26.23;44.06;101328.59;5103242;27;45408;-75
2022/06/18 05:35:44;;;;;;;;;12.75;11.00;;;;;26.26;44.29;101336.50;5103219;27;45290;-75
2022/06/18 05:38:19;;;;;;;;;12.00;12.00;;;;;26.24;44.01;101328.47;5099855;27;45810;-75
2022/06/18 05:40:44;;;;;;;;;13.00;11.75;;;;;26.22;43.98;101326.88;5099225;27;46772;-75
2022/06/18 05:43:10;;;;;;;;;11.00;11.00;;;;;26.24;43.74;101325.75;5102652;27;45280;-75
2022/06/18 05:45:37;;;;;;;;;10.25;10.25;;;;;26.21;43.94;101319.66;5102861;27;45386;-75
2022/06/18 05:48:03;;;;;;;;;11.50;11.50;;;;;26.23;43.91;101324.00;5101619;27;45502;-75
2022/06/18 05:50:29;;;;;;;;;11.50;11.25;;;;;26.20;43.98;101312.47;5101794;27;45313;-75
2022/06/18 05:52:54;;;;;;;;;10.25;10.25;;;;;26.21;44.13;101314.19;5101654;27;45321;-75
2022/06/18 05:55:21;;;;;;;;;12.75;12.50;;;;;26.23;44.36;101318.53;5100652;27;45223;-75
2022/06/18 05:57:53;;;;;;;;;13.50;12.75;;;;;26.24;44.25;101316.63;5100797;27;45401;-75
2022/06/18 06:00:23;;;;;;;;;11.00;11.00;;;;;26.28;44.01;101311.75;5102562;27;45307;-75
2022/06/18 06:02:48;;;;;;;;;11.00;11.00;;;;;26.27;44.08;101310.03;5102185;27;45501;-75
2022/06/18 06:05:14;;;;;;;;;12.50;12.50;;;;;26.31;43.92;101319.69;5101552;27;45498;-75
2022/06/18 06:07:40;;;;;;;;;10.50;10.50;;;;;26.31;43.71;101316.94;5100895;27;45318;-73
2022/06/18 06:13:02;;;;;;;;;10.75;10.75;;;;;26.29;44.21;101302.56;5097364;27;45429;-77
2022/06/18 06:15:27;;;;;;;;;11.00;11.00;;;;;26.31;43.99;101298.69;5102585;27;45310;-76
2022/06/18 06:17:53;;;;;;;;;11.00;9.50;;;;;26.32;43.79;101299.53;5100688;27;45512;-76
2022/06/18 06:20:25;;;;;;;;;10.00;10.00;;;;;26.36;43.69;101303.72;5102649;27;46109;-76
2022/06/18 06:22:50;;;;;;;;;10.00;10.00;;;;;26.38;43.86;101298.97;5102317;27;45252;-77
2022/06/18 06:25:16;;;;;;;;;12.75;11.50;;;;;26.37;43.96;101300.84;5096296;27;45260;-76
2022/06/18 06:27:42;;;;;;;;;12.25;11.00;;;;;26.38;44.42;101296.22;5102139;27;45428;-76
2022/06/18 06:30:11;;;;;;;;;12.25;11.50;;;;;26.37;44.15;101295.38;5101809;27;45630;-76
2022/06/18 06:32:37;;;;;;;;;10.00;10.00;;;;;26.43;44.53;101299.44;5102283;27;45332;-76
2022/06/18 06:35:02;;;;;;;;;12.00;12.00;;;;;26.45;43.98;101302.91;5102751;27;45486;-77
2022/06/18 06:37:28;;;;;;;;;13.00;12.75;;;;;26.44;44.55;101292.94;5100551;27;45298;-77
2022/06/18 06:39:53;;;;;;;;;5.25;5.00;;;;;26.44;43.90;101290.19;5095245;27;47175;-76
2022/06/18 06:42:18;;;;;;;;;13.25;13.25;;;;;26.52;44.31;101295.84;5099608;27;45229;-76
2022/06/18 06:44:43;;;;;;;;;11.25;11.25;;;;;26.53;43.93;101294.84;5101591;27;48887;-76
2022/06/18 06:47:10;;;;;;;;;13.50;13.50;;;;;26.53;44.21;101293.97;5101369;27;52097;-77
2022/06/18 06:49:35;;;;;;;;;12.25;11.25;;;;;26.51;44.23;101285.88;5101883;27;45232;-77
2022/06/18 06:52:01;;;;;;;;;11.00;11.00;;;;;26.52;44.23;101284.91;5101632;27;45249;-77
2022/06/18 06:54:26;;;;;;;;;11.00;11.00;;;;;26.61;44.17;101292.28;5101947;27;45584;-76
2022/06/18 06:59:35;;;;;;;;;12.00;12.00;;;;;26.62;43.90;101291.25;5099209;27;45275;-77
2022/06/18 07:02:02;;;;;;;;;12.25;12.25;;;;;26.64;43.40;101295.75;5101513;27;45323;-77
2022/06/18 07:04:28;;;;;;;;;11.75;11.75;;;;;26.79;43.68;101310.78;5093898;27;45611;-77
2022/06/18 07:06:56;;;;;;;;;11.75;10.50;;;;;26.78;43.64;101298.06;5099742;27;45651;-77
2022/06/18 07:09:21;;;;;;;;;6.25;6.25;;;;;26.85;43.60;101307.47;5101696;27;46910;-78
2022/06/18 07:11:46;;;;;;;;;14.75;13.00;;;;;26.84;43.67;101304.88;5081522;27;45361;-77
2022/06/18 07:14:12;;;;;;;;;12.25;10.75;;;;;26.89;43.68;101300.69;5089755;27;45412;-77
2022/06/18 07:16:47;;;;;;;;;14.75;13.75;;;;;26.90;43.66;101296.97;5093500;27;45862;-77
2022/06/18 07:19:13;;;;;;;;;14.00;13.75;;;;;26.96;43.15;101298.25;5099109;27;45364;-77
2022/06/18 07:21:38;;;;;;;;;14.75;14.75;;;;;27.06;43.31;101306.47;5098534;27;45395;-81
2022/06/18 07:24:04;;;;;;;;;12.75;10.75;;;;;27.07;43.57;101303.59;5094401;27;45418;-72
2022/06/18 07:26:29;;;;;;;;;14.25;13.00;;;;;27.04;42.98;101290.19;5092412;27;45251;-73
2022/06/18 07:28:54;;;;;;;;;12.75;12.75;;;;;27.14;43.01;101304.75;5101149;27;45992;-72
2022/06/18 07:31:25;;;;;;;;;14.50;13.50;;;;;27.22;42.97;101309.50;5100487;27;45202;-73
2022/06/18 07:33:51;;;;;;;;;12.00;12.00;;;;;27.25;43.34;101311.97;5100104;27;45447;-73
2022/06/18 07:36:17;;;;;;;;;18.00;15.00;;;;;27.28;43.08;101297.97;5101114;27;45315;-72
2022/06/18 07:38:42;;;;;;;;;15.00;14.25;;;;;27.36;42.93;101297.25;5094399;27;45373;-72
2022/06/18 07:41:07;;;;;;;;;15.00;14.75;;;;;27.40;43.88;101290.50;5091606;27;58217;-72
2022/06/18 07:43:38;;;;;;;;;13.50;13.00;;;;;27.40;42.63;101279.53;5100281;27;45340;-73
2022/06/18 07:46:06;;;;;;;;;11.50;11.50;;;;;27.48;43.20;101278.78;5096757;27;45752;-72
2022/06/18 07:48:33;;;;;;;;;13.00;13.00;;;;;27.56;43.41;101289.88;5095314;27;47022;-72
2022/06/18 07:50:59;;;;;;;;;15.75;14.75;;;;;27.62;42.85;101288.44;5100268;27;45381;-72
2022/06/18 07:53:25;;;;;;;;;12.00;12.00;;;;;27.66;43.29;101289.84;5100536;27;45454;-72
2022/06/18 07:55:51;;;;;;;;;11.75;11.75;;;;;27.70;42.80;101272.09;5100794;27;45394;-72
2022/06/18 07:58:18;;;;;;;;;13.75;12.25;;;;;27.73;42.53;101269.94;5096918;27;46357;-71
2022/06/18 08:00:44;;;;;;;;;13.75;12.00;;;;;27.82;43.01;101272.78;5098279;27;45597;-71
2022/06/18 08:03:12;;;;;;;;;13.25;12.25;;;;;27.88;42.91;101277.66;5099977;27;45293;-71
2022/06/18 08:05:38;;;;;;;;;12.00;11.50;;;;;27.89;42.90;101263.78;5098253;27;45677;-71
2022/06/18 08:08:04;;;;;;;;;14.75;14.50;;;;;27.96;42.33;101268.72;5097046;27;45409;-73
2022/06/18 08:10:32;;;;;;;;;12.00;12.00;;;;;28.00;42.41;101268.28;5100527;27;45553;-73
2022/06/18 08:12:58;;;;;;;;;16.25;15.25;;;;;28.04;42.55;101255.97;5092103;27;45515;-74
2022/06/18 08:15:23;;;;;;;;;15.50;14.50;;;;;28.14;42.67;101260.56;5100480;27;45304;-73
2022/06/18 08:17:48;;;;;;;;;14.50;14.00;;;;;28.24;41.86;101261.38;5085941;27;46759;-73
2022/06/18 08:20:14;;;;;;;;;13.50;13.25;;;;;28.27;42.09;101255.56;5100396;27;50389;-73
2022/06/18 08:22:44;;;;;;;;;14.00;14.00;;;;;28.33;42.16;101248.59;5097028;27;45385;-73
2022/06/18 08:25:11;;;;;;;;;15.00;13.75;;;;;28.45;41.80;101250.09;5092392;27;45314;-72
2022/06/18 08:27:38;;;;;;;;;18.00;15.50;;;;;28.51;41.35;101243.16;5099451;27;45352;-72
2022/06/18 08:30:05;;;;;;;;;14.00;14.00;;;;;28.48;42.88;101235.22;5100093;27;45402;-72
2022/06/18 08:32:30;;;;;;;;;15.00;14.00;;;;;28.59;41.88;101238.63;5098206;27;45329;-71
2022/06/18 08:34:55;;;;;;;;;15.25;15.25;;;;;28.62;42.06;101242.97;5096506;27;51628;-70
2022/06/18 08:37:21;;;;;;;;;14.00;14.00;;;;;28.69;42.02;101241.31;5098125;27;46157;-70
2022/06/18 08:39:47;;;;;;;;;12.50;12.50;;;;;28.76;42.16;101245.13;5085763;27;45500;-70
2022/06/18 08:42:19;;;;;;;;;13.75;13.00;;;;;28.87;40.93;101243.19;5090472;27;45474;-70
2022/06/18 08:45:12;;;;;;;;;16.25;15.75;;;;;28.91;41.27;101239.09;5093474;27;45254;-70
2022/06/18 08:48:11;;;;;;;;;13.25;13.25;;;;;29.01;41.27;101238.00;5087773;27;45456;-71
2022/06/18 08:51:00;;;;;;;;;15.00;15.00;;;;;29.06;40.68;101240.28;5100028;27;45416;-70
2022/06/18 08:53:39;;;;;;;;;16.25;14.00;;;;;29.14;41.09;101226.59;5100306;27;45226;-70
2022/06/18 08:56:18;;;;;;;;;16.25;15.00;;;;;29.22;40.50;101223.09;5099357;27;45530;-70
2022/06/18 08:58:49;;;;;;;;;14.25;14.25;;;;;29.28;40.13;101207.81;5090738;27;46630;-70
2022/06/18 09:01:22;;;;;;;;;16.50;15.75;;;;;29.34;40.54;101216.28;5099336;27;46052;-70
2022/06/18 09:03:53;;;;;;;;;13.75;13.75;;;;;29.42;40.61;101206.38;5099765;27;45380;-70
2022/06/18 09:06:53;;;;;;;;;14.00;14.00;;;;;29.44;40.10;101196.94;5098092;27;45650;-70
2022/06/18 09:09:42;;;;;;;;;11.50;10.50;;;;;29.55;40.56;101193.03;5092764;27;45516;-70
2022/06/18 09:12:24;;;;;;;;;14.00;13.50;;;;;29.62;39.91;101196.00;5093000;27;45291;-70
2022/06/18 09:15:11;;;;;;;;;15.75;15.00;;;;;29.68;39.95;101201.72;5098241;27;45406;-70
2022/06/18 09:17:39;;;;;;;;;17.00;15.50;;;;;29.79;38.69;101196.97;5078369;27;45487;-70
2022/06/18 09:20:28;;;;;;;;;13.00;13.00;;;;;29.84;38.93;101181.72;5099526;27;45328;-71
2022/06/18 09:22:55;;;;;;;;;13.00;13.00;;;;;29.93;38.82;101186.19;5098352;27;45451;-70
2022/06/18 09:25:27;;;;;;;;;14.25;14.25;;;;;29.90;38.22;101170.06;5097524;27;45455;-70
2022/06/18 09:28:03;;;;;;;;;16.50;16.50;;;;;30.06;38.61;101182.13;5091719;27;45221;-70
2022/06/18 09:30:34;;;;;;;;;13.25;13.25;;;;;30.12;38.42;101181.44;5099132;27;46156;-70
2022/06/18 09:33:07;;;;;;;;;11.00;11.00;;;;;30.13;38.11;101171.31;5097638;27;45303;-70
2022/06/18 09:35:42;;;;;;;;;11.25;11.25;;;;;30.22;37.82;101171.19;5096697;27;45452;-70
2022/06/18 09:38:16;;;;;;;;;12.75;12.75;;;;;30.26;37.99;101174.44;5090032;27;45355;-70
2022/06/18 09:40:48;;;;;;;;;13.25;13.25;;;;;30.34;37.62;101168.09;5097161;27;47074;-70
2022/06/18 09:43:37;;;;;;;;;15.00;14.00;;;;;30.44;36.83;101160.59;5102395;27;45334;-70
2022/06/18 09:46:09;;;;;;;;;14.00;13.25;;;;;30.46;37.00;101153.84;5100024;27;45471;-70
2022/06/18 09:48:37;;;;;;;;;11.25;10.75;;;;;30.54;36.58;101158.53;5112732;27;45480;-70
2022/06/18 09:51:13;;;;;;;;;13.00;12.00;;;;;30.64;36.56;101152.84;5102127;27;46381;-71
2022/06/18 09:53:42;;;;;;;;;12.00;11.00;;;;;30.66;36.11;101153.53;5102750;27;45389;-71
2022/06/18 09:56:15;;;;;;;;;11.75;11.75;;;;;30.73;36.34;101148.19;5101956;27;45559;-70
2022/06/18 09:58:52;;;;;;;;;12.00;11.25;;;;;30.76;36.11;101142.34;5095518;27;45469;-70
2022/06/18 10:01:24;;;;;;;;;9.00;8.50;;;;;30.84;35.76;101145.09;5099173;27;46200;-70
2022/06/18 10:06:52;;;;;;;;;6.50;6.50;;;;;30.93;35.49;101133.03;5101370;27;45227;-70
2022/06/18 10:09:34;;;;;;;;;11.50;11.50;;;;;30.96;34.72;101134.63;5101223;27;45268;-70
2022/06/18 10:12:14;;;;;;;;;10.25;10.25;;;;;30.94;34.22;101120.09;5091977;27;45449;-71
2022/06/18 10:14:39;;;;;;;;;10.75;10.75;;;;;30.98;34.87;101130.63;5102216;27;45267;-71
2022/06/18 10:17:17;;;;;;;;;9.75;8.50;;;;;31.06;34.24;101117.88;5102274;27;45509;-68
2022/06/18 10:19:46;;;;;;;;;10.50;10.50;;;;;31.14;34.00;101109.59;5098425;27;45612;-69
2022/06/18 10:22:37;;;;;;;;;12.25;11.25;;;;;31.20;34.22;101109.72;5090926;27;46484;-70
2022/06/18 10:25:31;;;;;;;;;8.50;7.75;;;;;31.24;34.29;101103.88;5071955;27;45336;-69
2022/06/18 10:28:18;;;;;;;;;10.00;10.00;;;;;31.30;33.82;101100.41;5091714;27;45271;-70
2022/06/18 10:31:14;;;;;;;;;11.25;11.25;;;;;31.35;33.90;101101.59;5089718;27;45579;-70
2022/06/18 10:34:18;;;;;;;;;12.75;11.75;;;;;31.42;33.29;101092.63;5097393;27;48048;-70
2022/06/18 10:36:54;;;;;;;;;11.25;11.00;;;;;31.49;32.93;101094.50;5089973;27;45459;-70
2022/06/18 10:39:26;;;;;;;;;10.50;9.75;;;;;31.56;32.64;101098.28;5099077;27;45472;-70
2022/06/18 10:42:18;;;;;;;;;11.25;10.00;;;;;31.60;32.19;101092.41;5098346;27;46872;-74
2022/06/18 10:44:57;;;;;;;;;12.25;12.25;;;;;31.62;32.63;101093.94;5087473;27;45406;-70
2022/06/18 10:47:33;;;;;;;;;11.50;11.50;;;;;31.63;32.52;101092.06;5091810;27;45551;-70
2022/06/18 10:50:02;;;;;;;;;10.00;9.25;;;;;31.64;32.23;101089.09;5083086;27;45306;-70
2022/06/18 10:52:27;;;;;;;;;10.25;10.25;;;;;31.68;32.25;101082.19;5101940;27;45223;-70
2022/06/18 10:55:05;;;;;;;;;10.00;10.00;;;;;31.72;32.12;101066.97;5100196;27;46291;-70
2022/06/18 10:57:30;;;;;;;;;11.25;11.25;;;;;31.71;32.37;101065.28;5096796;27;45617;-70
2022/06/18 10:59:55;;;;;;;;;10.50;10.50;;;;;31.73;32.51;101060.44;5100614;27;45399;-70
2022/06/18 11:02:34;;;;;;;;;10.00;10.00;;;;;31.85;32.04;101062.78;5101786;27;46623;-70
2022/06/18 11:05:12;;;;;;;;;11.25;10.25;;;;;31.93;32.17;101052.53;5100330;27;46277;-70
2022/06/18 11:07:38;;;;;;;;;9.00;8.50;;;;;31.95;31.06;101044.06;5100523;27;45235;-70
2022/06/18 11:10:19;;;;;;;;;9.00;9.00;;;;;31.99;31.04;101047.31;5098712;27;45859;-70
2022/06/18 11:12:53;;;;;;;;;10.75;10.75;;;;;32.03;31.09;101043.19;5096503;27;45416;-70
2022/06/18 11:15:44;;;;;;;;;9.25;9.25;;;;;32.09;30.86;101037.81;5101136;27;45497;-70
2022/06/18 11:18:20;;;;;;;;;9.00;9.00;;;;;32.13;30.85;101030.84;5093157;27;45494;-70
2022/06/18 11:21:05;;;;;;;;;9.00;7.25;;;;;32.20;29.79;101030.13;5100488;27;45299;-70
2022/06/18 11:23:36;;;;;;;;;8.50;7.75;;;;;32.26;30.20;101032.13;5101441;27;45241;-70
2022/06/18 11:26:04;;;;;;;;;9.75;9.00;;;;;32.30;29.81;101025.22;5101145;27;46281;-70
2022/06/18 11:28:39;;;;;;;;;10.75;7.75;;;;;32.31;29.72;101016.75;5101705;27;45251;-70
2022/06/18 11:31:06;;;;;;;;;11.75;10.25;;;;;32.36;30.38;101012.53;5098300;27;45242;-70
2022/06/18 11:33:41;;;;;;;;;10.25;8.50;;;;;32.41;30.87;101019.25;5088279;27;45456;-70
2022/06/18 11:36:11;;;;;;;;;10.00;9.00;;;;;32.43;30.70;101010.78;5080650;27;46069;-70
2022/06/18 11:38:38;;;;;;;;;9.50;8.50;;;;;32.44;31.11;101005.03;5087272;27;45446;-70